EmailTwitter


Surface observations / Quebec / CYUL (71627)

Regions: Quebec | Canada | USA | Europe | France | UK | Elsewhere
Station
Display
Info & Location for CYUL (71627) | Help decoding METAR

Weather Conditions observed on 2019/04/24 at 09:19 UTC at MONTREAL INTL A, QB (CYUL)

Sky conditions: overcast.

Obstruction(s) to Vision: light rain.

Temperature: 7.0 Celsius.

Dewpoint: 6.0 Celsius.

Relative Humidity: 93%

Windchill Factor: 3.

Windchill Factor (Gusts): 1.

Winds: Southwest at 30 km/h or 16 knots.

Gust: 54 km/h or 29 knots.

Mean Sea level Pressure: 100.22 kilopascals.

Altimeter Setting (QNH): 100.20 kilopascals or 29.59 inches of mercury.

Horizontal visibility: 10.00 statute miles or 16.00 kilometers.

Height of the Ceiling: 427 metres ( 1400 feet ).

Coded METAR:

CYUL 240919Z 23016G29KT 10SM -RA FEW008 OVC014 07/06 A2959 RMK SF2SC6 SLP022=